Pagrindinis puslapis
METAR-TAF:

METAR-TAF

Oro uostai :

Hamadanas, Iranas

platuma: 34-52-05N, ilguma: 048-33-08E, Aukštis: 1757 m

Dabartinis oras

Ataskaita buvo paskelbta 19 minutes, ne 16:00 UTC
Vėjas 4 kt iš Rytų
Temperatūra 12°C
Drėgmė 67%
Slėgis 1018 hPa
Matomumas 10 km arba daugiau
Mažai debesys ne aukštis 4000 ft

METAR: OIHH 241600Z 08004KT 9999 FEW040 12/06 Q1018 A3007

Laikas: 20:49 (16:19 UTC)


TAF: trūkstamas

Orai ataskaitas ir orų prognozės (METAR, TAF).

turimą stotys yra geltonos ir raudonos taškus žemėlapyje.

Perkelti pele per norėdami pamatyti stoties vardą.

Tada spustelėkite, norėdami matyti oro stebėjimo ir prognozės.

Norėdami pakeisti žemėlapį: spustelėkite ant žalios mygtukų su juodo kryžiaus žemyn,; žalią mygtuką su brūkšneliu, jei norite nutolinti; arba žalių rodyklių gretimoms žemėlapius.


METAR-TAF: